North Bend, OR

11:49 PM PDT on May 26, 2017 (GMT -0700)
North Bend Municipal

Weather History for KOTH - March, 2015

Change the Weather History Date:

Monday, March 23, 2015

  Actual Average Record
Temperature  
Mean Temperature 51 °F 48 °F  
Max Temperature 55 °F 54 °F 70 °F (1931)
Min Temperature 46 °F 42 °F 29 °F (1924)
Degree Days  
Heating Degree Days 14 17  
Month to date heating degree days 314 400  
Since 1 July heating degree days 2418 3574  
Cooling Degree Days 0 0  
Month to date cooling degree days 0 0  
Year to date cooling degree days 0 0  
Moisture  
Dew Point 48 °F    
Average Humidity 93    
Maximum Humidity 100    
Minimum Humidity 83    
Precipitation  
Precipitation 1.06 in 0.24 in 1.76 in (1986)
Month to date precipitation 4.71 5.98  
Year to date precipitation 14.92 23.76  
Sea Level Pressure  
Sea Level Pressure 30.05 in    
Wind  
Wind Speed 13 mph (SSW)    
Max Wind Speed 24 mph    
Max Gust Speed 29 mph    
Visibility 10 miles    
Events      
T = Trace of Precipitation, MM = Missing Value Source: NWS Daily Summary

Daily Weather History Graph

Daily Weather History Graph

Search for Another Location

Airport or City:

Trip Planner

Search our weather history database for the weather conditions in past years. The results will help you decide how hot, cold, wet, or windy it might be!

Date:

Astronomy

Mar. 23, 2015 Rise Set
Actual Time 7:15 AM PDT 7:32 PM PDT
Civil Twilight 6:46 AM PDT 8:01 PM PDT
Nautical Twilight 6:13 AM PDT 8:35 PM PDT
Astronomical Twilight 5:38 AM PDT 9:09 PM PDT
Moon 9:23 AM PDT (3/23) 11:51 PM PDT (3/23)
Length of Visible Light 13h 14m
Length of Day
12h 17m
Waxing Crescent, 16% of the Moon is Illuminated
Mar 23
Waxing Crescent
Mar 27
First Quarter
Apr 4
Full
Apr 11
Last Quarter
Apr 18
New

Hourly Weather History & Observations

Time (PDT) Temp. Windchill Dew Point Humidity Pressure Visibility Wind Dir Wind Speed Gust Speed Precip Events Conditions
12:15 AM 48.2 °F - 48.2 °F 100% 30.00 in 10.0 mi South 5.8 mph - N/A   Overcast
12:35 AM 48.2 °F - 48.2 °F 100% 30.00 in 7.0 mi West 4.6 mph - 0.02 in   Overcast
12:55 AM 48.2 °F - 48.2 °F 100% 30.00 in 10.0 mi SW 8.1 mph - 0.11 in   Mostly Cloudy
1:15 AM 48.2 °F - 46.4 °F 93% 30.00 in 10.0 mi SSW 4.6 mph - 0.05 in   Mostly Cloudy
1:35 AM 48.2 °F - 48.2 °F 100% 30.00 in 9.0 mi South 6.9 mph - 0.08 in   Overcast
1:55 AM 48.2 °F - 48.2 °F 100% 29.99 in 9.0 mi South 4.6 mph - 0.13 in   Overcast
2:15 AM 48.2 °F - 48.2 °F 100% 29.99 in 8.0 mi South 5.8 mph - 0.03 in   Overcast
2:35 AM 48.2 °F - 48.2 °F 100% 29.99 in 10.0 mi SSE 5.8 mph - 0.08 in   Overcast
2:55 AM 48.2 °F - 46.4 °F 93% 29.98 in 10.0 mi SSE 11.5 mph - 0.10 in   Overcast
3:15 AM 48.2 °F - 46.4 °F 93% 29.99 in 9.0 mi South 11.5 mph - 0.02 in   Overcast
3:35 AM 50.0 °F - 48.2 °F 94% 29.99 in 10.0 mi WSW 16.1 mph 21.9 mph 0.03 in   Overcast
3:55 AM 50.0 °F - 46.4 °F 87% 30.00 in 10.0 mi WSW 20.7 mph - 0.03 in   Overcast
4:15 AM 50.0 °F - 46.4 °F 87% 30.01 in 10.0 mi WSW 15.0 mph 24.2 mph N/A   Overcast
4:35 AM 50.0 °F - 46.4 °F 87% 30.02 in 10.0 mi WSW 11.5 mph 20.7 mph N/A   Mostly Cloudy
4:55 AM 50.0 °F - 46.4 °F 87% 30.03 in 10.0 mi SSW 11.5 mph 17.3 mph N/A   Overcast
5:15 AM 48.2 °F - 46.4 °F 93% 30.04 in 10.0 mi SW 12.7 mph 18.4 mph N/A   Overcast
5:35 AM 48.2 °F - 46.4 °F 93% 30.05 in 10.0 mi SSW 9.2 mph - N/A   Mostly Cloudy
5:55 AM 48.2 °F - 46.4 °F 93% 30.06 in 10.0 mi South 5.8 mph - N/A   Mostly Cloudy
6:15 AM 48.2 °F - 46.4 °F 93% 30.07 in 10.0 mi WSW 13.8 mph - N/A   Mostly Cloudy
6:35 AM 48.2 °F - 46.4 °F 93% 30.07 in 10.0 mi SW 9.2 mph - N/A   Mostly Cloudy
6:55 AM 46.4 °F 42.4 °F 44.6 °F 93% 30.08 in 10.0 mi SSE 8.1 mph - N/A   Mostly Cloudy
7:15 AM 48.2 °F - 46.4 °F 93% 30.09 in 10.0 mi SSW 5.8 mph - N/A   Mostly Cloudy
7:35 AM 48.2 °F - 46.4 °F 93% 30.09 in 10.0 mi South 6.9 mph - N/A   Scattered Clouds
7:55 AM 46.4 °F 43.5 °F 46.4 °F 100% 30.10 in 10.0 mi South 5.8 mph - N/A   Partly Cloudy
8:15 AM 48.2 °F - 46.4 °F 93% 30.11 in 10.0 mi SSE 8.1 mph - N/A   Mostly Cloudy
8:35 AM 48.2 °F - 46.4 °F 93% 30.12 in 9.0 mi South 5.8 mph 16.1 mph 0.03 in   Overcast
8:55 AM 48.2 °F - 46.4 °F 93% 30.12 in 10.0 mi South 8.1 mph - 0.05 in   Mostly Cloudy
9:15 AM 50.0 °F - 46.4 °F 87% 30.12 in 10.0 mi South 9.2 mph - N/A   Overcast
9:35 AM 51.8 °F - 48.2 °F 88% 30.13 in 10.0 mi South 11.5 mph - N/A   Mostly Cloudy
9:55 AM 51.8 °F - 46.4 °F 82% 30.13 in 10.0 mi South 8.1 mph - N/A   Overcast
10:35 AM 48.2 °F - 46.4 °F 93% 30.14 in 10.0 mi SW 3.5 mph - 0.06 in   Mostly Cloudy
10:55 AM 51.8 °F - 48.2 °F 88% 30.15 in 10.0 mi SSW 6.9 mph - 0.06 in   Mostly Cloudy
11:15 AM 53.6 °F - 48.2 °F 82% 30.15 in 10.0 mi SSW 12.7 mph 18.4 mph N/A   Scattered Clouds
11:35 AM 51.8 °F - 48.2 °F 88% 30.15 in 10.0 mi South 11.5 mph 17.3 mph N/A   Mostly Cloudy
11:55 AM 53.6 °F - 48.2 °F 82% 30.16 in 10.0 mi South 12.7 mph 20.7 mph N/A   Mostly Cloudy
12:15 PM 51.8 °F - 46.4 °F 82% 30.15 in 10.0 mi South 12.7 mph - N/A   Mostly Cloudy
12:35 PM 51.8 °F - 46.4 °F 82% 30.15 in 10.0 mi South 11.5 mph 16.1 mph N/A   Mostly Cloudy
12:55 PM 51.8 °F - 46.4 °F 82% 30.15 in 9.0 mi SSW 13.8 mph 17.3 mph N/A   Mostly Cloudy
1:15 PM 51.8 °F - 48.2 °F 88% 30.14 in 10.0 mi South 6.9 mph - 0.01 in   Mostly Cloudy
1:35 PM 51.8 °F - 48.2 °F 88% 30.13 in 10.0 mi SE 5.8 mph - 0.02 in   Mostly Cloudy
1:55 PM 51.8 °F - 46.4 °F 82% 30.14 in 10.0 mi South 13.8 mph - 0.02 in   Overcast
2:15 PM 51.8 °F - 46.4 °F 82% 30.13 in 10.0 mi SSW 12.7 mph 20.7 mph 0.02 in   Overcast
2:35 PM 50.0 °F - 46.4 °F 87% 30.13 in 10.0 mi SSW 15.0 mph 27.6 mph 0.03 in   Overcast
2:55 PM 48.2 °F - 46.4 °F 93% 30.13 in 10.0 mi SSW 10.4 mph 17.3 mph 0.05 in   Overcast
3:15 PM 48.2 °F - 46.4 °F 93% 30.11 in 10.0 mi South 9.2 mph - 0.01 in   Overcast
3:35 PM 48.2 °F - 48.2 °F 100% 30.10 in 10.0 mi SSE 10.4 mph - 0.03 in   Overcast
3:55 PM 48.2 °F - 48.2 °F 100% 30.09 in 10.0 mi SSE 11.5 mph 17.3 mph 0.04 in   Overcast
4:15 PM 48.2 °F - 48.2 °F 100% 30.06 in 9.0 mi SSE 15.0 mph - 0.03 in   Overcast
4:35 PM 48.2 °F - 48.2 °F 100% 30.06 in 9.0 mi SSE 12.7 mph 20.7 mph 0.07 in   Mostly Cloudy
4:55 PM 48.2 °F - 48.2 °F 100% 30.04 in 10.0 mi SSE 12.7 mph - 0.11 in   Mostly Cloudy
5:15 PM 48.2 °F - 48.2 °F 100% 30.03 in 10.0 mi SSE 13.8 mph - 0.03 in   Overcast
5:35 PM 48.2 °F - 46.4 °F 93% 30.01 in 10.0 mi SSE 13.8 mph - 0.06 in   Mostly Cloudy
5:55 PM 48.2 °F - 46.4 °F 93% 29.99 in 10.0 mi SSE 16.1 mph 24.2 mph 0.06 in   Overcast
6:15 PM 48.2 °F - 46.4 °F 93% 29.97 in 10.0 mi SSE 13.8 mph - 0.02 in   Overcast
6:35 PM 48.2 °F - 46.4 °F 93% 29.97 in 10.0 mi SSE 17.3 mph 24.2 mph 0.06 in   Overcast
6:55 PM 48.2 °F - 46.4 °F 93% 29.96 in 10.0 mi SSE 16.1 mph 21.9 mph 0.10 in   Overcast
7:15 PM 48.2 °F - 48.2 °F 100% 29.96 in 10.0 mi SSE 15.0 mph - 0.05 in   Overcast
7:35 PM 48.2 °F - 48.2 °F 100% 29.97 in 9.0 mi South 8.1 mph - 0.13 in   Overcast
7:55 PM 48.2 °F - 48.2 °F 100% 29.97 in 10.0 mi South 15.0 mph - 0.18 in   Overcast
8:15 PM 51.8 °F - 50.0 °F 94% 29.96 in 8.0 mi South 18.4 mph 29.9 mph 0.06 in   Overcast
8:35 PM 51.8 °F - 51.8 °F 100% 29.96 in 5.0 mi South 17.3 mph 21.9 mph 0.06 in   Overcast
8:55 PM 53.6 °F - 53.6 °F 100% 29.95 in 7.0 mi SSW 17.3 mph 25.3 mph 0.12 in   Overcast
9:15 PM 55.4 °F - 53.6 °F 94% 29.96 in 5.0 mi SW 20.7 mph 32.2 mph 0.01 in   Overcast
9:35 PM 55.4 °F - 53.6 °F 94% 29.96 in 5.0 mi SW 15.0 mph 34.5 mph 0.01 in   Overcast
9:55 PM 55.4 °F - 53.6 °F 94% 29.97 in 10.0 mi SW 17.3 mph 28.8 mph 0.01 in   Overcast
10:15 PM 55.4 °F - 53.6 °F 94% 29.98 in 10.0 mi SW 20.7 mph 31.1 mph N/A   Overcast
10:35 PM 55.4 °F - 53.6 °F 94% 29.99 in 10.0 mi SW 19.6 mph 26.5 mph N/A   Overcast
10:55 PM 55.4 °F - 53.6 °F 94% 29.99 in 10.0 mi SW 20.7 mph 28.8 mph N/A   Overcast
11:15 PM 55.4 °F - 53.6 °F 94% 30.01 in 6.0 mi WSW 24.2 mph 29.9 mph N/A   Overcast
11:35 PM 53.6 °F - 51.8 °F 94% 30.03 in 10.0 mi West 25.3 mph 32.2 mph N/A   Mostly Cloudy
11:55 PM 53.6 °F - 50.0 °F 88% 30.05 in 10.0 mi West 24.2 mph 27.6 mph N/A   Overcast